Time;durP1;ratioP1;P1;durP2;ratioP2;P2;SDS_P1;SDS_P2;PMS_P1;PMS_P2;Temp;Humidity;BMP_temperature;BMP_pressure;BME280_temperature;BME280_humidity;BME280_pressure;Samples;Min_cycle;Max_cycle;Signal;HPM_P1;HPM_P2
2022/09/29 00:01:33;;;;;;;13.38;9.20;;;9.30;99.90;;;;;;4946015;28;20464;-79
2022/09/29 00:04:01;;;;;;;11.02;9.35;;;9.20;99.90;;;;;;4959407;28;20043;-80
2022/09/29 00:06:27;;;;;;;11.77;9.50;;;9.20;99.90;;;;;;4961036;28;20073;-75
2022/09/29 00:08:52;;;;;;;14.50;9.77;;;9.20;99.90;;;;;;4965733;28;20031;-79
2022/09/29 00:11:19;;;;;;;13.43;10.05;;;9.20;99.90;;;;;;4947417;28;20030;-75
2022/09/29 00:13:46;;;;;;;16.48;9.70;;;9.20;99.90;;;;;;4963621;28;20031;-79
2022/09/29 00:16:14;;;;;;;14.20;9.70;;;9.30;99.90;;;;;;4961366;28;20066;-77
2022/09/29 00:18:40;;;;;;;12.95;9.88;;;9.20;99.90;;;;;;4961921;28;20519;-79
2022/09/29 00:21:15;;;;;;;12.40;9.25;;;9.20;99.90;;;;;;4936771;28;20019;-80
2022/09/29 00:23:41;;;;;;;14.50;9.75;;;9.10;99.90;;;;;;4963590;28;20361;-78
2022/09/29 00:26:13;;;;;;;13.65;9.07;;;9.10;99.90;;;;;;4964557;28;20091;-78
2022/09/29 00:28:46;;;;;;;10.70;8.53;;;9.00;99.90;;;;;;4960724;28;20437;-76
2022/09/29 00:31:11;;;;;;;16.17;9.25;;;9.00;99.90;;;;;;4963635;28;20117;-79
2022/09/29 00:33:39;;;;;;;11.98;8.38;;;8.90;99.90;;;;;;4953114;28;20051;-78
2022/09/29 00:36:08;;;;;;;13.98;8.02;;;8.90;99.90;;;;;;4956496;28;20083;-77
2022/09/29 00:38:37;;;;;;;14.68;8.40;;;8.90;99.90;;;;;;4944242;28;20027;-78
2022/09/29 00:41:04;;;;;;;23.00;10.55;;;8.90;99.90;;;;;;4961935;28;20123;-79
2022/09/29 00:43:49;;;;;;;44.45;15.80;;;8.80;99.90;;;;;;4962991;28;20063;-77
2022/09/29 00:46:19;;;;;;;28.70;13.23;;;8.80;99.90;;;;;;4944927;28;20023;-79
2022/09/29 00:48:46;;;;;;;16.27;10.63;;;8.80;99.90;;;;;;4954165;28;20038;-79
2022/09/29 00:51:12;;;;;;;18.38;10.32;;;8.80;99.90;;;;;;4954569;28;20031;-78
2022/09/29 00:53:40;;;;;;;13.57;9.75;;;8.80;99.90;;;;;;4966058;28;20038;-79
2022/09/29 00:56:10;;;;;;;13.93;9.45;;;8.80;99.90;;;;;;4959569;28;20371;-79
2022/09/29 00:58:40;;;;;;;15.20;9.98;;;8.80;99.90;;;;;;4968995;28;20022;-79
2022/09/29 01:01:06;;;;;;;14.65;9.52;;;8.80;99.90;;;;;;4965433;28;20024;-80
2022/09/29 01:03:36;;;;;;;10.10;8.15;;;8.80;99.90;;;;;;4963649;28;20023;-79
2022/09/29 01:06:11;;;;;;;14.77;8.65;;;8.80;99.90;;;;;;4963064;28;20020;-83
2022/09/29 01:09:01;;;;;;;11.93;8.18;;;8.80;99.90;;;;;;4961513;28;20495;-75
2022/09/29 01:11:29;;;;;;;9.27;7.50;;;8.80;99.90;;;;;;4952928;28;20028;-77
2022/09/29 01:14:02;;;;;;;13.05;8.63;;;8.80;99.90;;;;;;4946922;28;20034;-75
2022/09/29 01:16:31;;;;;;;12.52;8.00;;;8.70;99.90;;;;;;4961283;28;20019;-80
2022/09/29 01:18:59;;;;;;;12.63;9.40;;;8.70;99.90;;;;;;4952416;28;20066;-79
2022/09/29 01:21:33;;;;;;;9.15;8.07;;;8.70;99.90;;;;;;4952129;28;20468;-80
2022/09/29 01:24:02;;;;;;;9.88;8.20;;;8.70;99.90;;;;;;4963815;28;20456;-78
2022/09/29 01:26:50;;;;;;;10.38;8.02;;;8.70;99.90;;;;;;4941912;28;20093;-79
2022/09/29 01:29:24;;;;;;;15.27;8.00;;;8.70;99.90;;;;;;4945241;28;20023;-79
2022/09/29 01:32:08;;;;;;;10.43;7.93;;;8.70;99.90;;;;;;4962957;28;20019;-78
2022/09/29 01:34:49;;;;;;;12.88;8.32;;;8.70;99.90;;;;;;4949596;28;20488;-79
2022/09/29 01:37:28;;;;;;;13.02;7.50;;;8.60;99.90;;;;;;4962922;28;20023;-79
2022/09/29 01:40:07;;;;;;;13.57;8.82;;;8.60;99.90;;;;;;4961595;28;20038;-79
2022/09/29 01:42:48;;;;;;;9.13;7.68;;;8.60;99.90;;;;;;4963637;28;20204;-79
2022/09/29 01:45:32;;;;;;;10.43;7.15;;;8.50;99.90;;;;;;4963377;28;20035;-81
2022/09/29 01:48:04;;;;;;;9.13;7.43;;;8.60;99.90;;;;;;4964128;28;20500;-79
2022/09/29 01:50:44;;;;;;;9.02;7.45;;;8.50;99.90;;;;;;4967021;28;20039;-81
2022/09/29 01:53:32;;;;;;;11.35;7.80;;;8.50;99.90;;;;;;4967529;28;20031;-79
2022/09/29 01:56:04;;;;;;;8.77;7.80;;;8.40;99.90;;;;;;4965815;28;20031;-80
2022/09/29 01:58:41;;;;;;;13.30;8.00;;;8.40;99.90;;;;;;4951711;28;20106;-79
2022/09/29 02:01:12;;;;;;;9.18;6.97;;;8.40;99.90;;;;;;4959561;28;20023;-78
2022/09/29 02:03:46;;;;;;;9.48;7.35;;;8.30;99.90;;;;;;4951243;28;20031;-80
2022/09/29 02:06:22;;;;;;;9.20;8.25;;;8.30;99.90;;;;;;4967224;28;20039;-79
2022/09/29 02:08:57;;;;;;;9.45;7.72;;;8.30;99.90;;;;;;4948823;28;20817;-80
2022/09/29 02:11:25;;;;;;;9.48;8.07;;;8.20;99.90;;;;;;4949172;28;20034;-80
2022/09/29 02:14:10;;;;;;;9.65;7.47;;;8.30;99.90;;;;;;4962775;28;20121;-81
2022/09/29 02:16:42;;;;;;;13.15;8.50;;;8.20;99.90;;;;;;4965094;28;20110;-80
2022/09/29 02:19:22;;;;;;;11.88;8.18;;;8.10;99.90;;;;;;4949552;28;20066;-80
2022/09/29 02:21:50;;;;;;;10.63;8.80;;;8.10;99.90;;;;;;4961425;28;20035;-81
2022/09/29 02:24:16;;;;;;;14.45;8.85;;;8.10;99.90;;;;;;4961212;28;20023;-80
2022/09/29 02:26:44;;;;;;;13.88;9.13;;;8.20;99.90;;;;;;4963333;28;20033;-80
2022/09/29 02:29:09;;;;;;;14.68;8.00;;;8.20;99.90;;;;;;4963807;28;20373;-80
2022/09/29 02:31:37;;;;;;;11.63;8.35;;;8.20;99.90;;;;;;4960446;28;20027;-82
2022/09/29 02:34:07;;;;;;;10.30;8.63;;;8.20;99.90;;;;;;4964564;28;20089;-79
2022/09/29 02:36:50;;;;;;;15.00;8.73;;;8.20;99.90;;;;;;4949235;28;20026;-79
2022/09/29 02:39:44;;;;;;;11.90;8.27;;;8.20;99.90;;;;;;4959005;28;20019;-80
2022/09/29 02:42:15;;;;;;;11.82;8.80;;;8.20;99.90;;;;;;4969620;28;20071;-81
2022/09/29 02:44:50;;;;;;;9.30;8.07;;;8.20;99.90;;;;;;4949161;28;20085;-80
2022/09/29 02:47:34;;;;;;;10.38;8.00;;;8.10;99.90;;;;;;4946248;28;20026;-79
2022/09/29 02:50:06;;;;;;;16.65;8.57;;;8.10;99.90;;;;;;4964126;28;20423;-80
2022/09/29 02:52:38;;;;;;;12.82;9.35;;;8.10;99.90;;;;;;4954256;28;20035;-80
2022/09/29 02:55:24;;;;;;;9.15;8.13;;;8.20;99.90;;;;;;4963346;28;20061;-76
2022/09/29 02:57:57;;;;;;;13.43;8.32;;;8.10;99.90;;;;;;4963556;28;20562;-80
2022/09/29 03:00:25;;;;;;;12.27;8.35;;;8.20;99.90;;;;;;4947481;28;20030;-81
2022/09/29 03:02:51;;;;;;;11.20;8.35;;;8.20;99.90;;;;;;4954956;28;20109;-79
2022/09/29 03:05:19;;;;;;;14.85;8.60;;;8.20;99.90;;;;;;4963345;28;20193;-80
2022/09/29 03:07:45;;;;;;;9.18;8.25;;;8.20;99.90;;;;;;4964481;28;20129;-81
2022/09/29 03:10:12;;;;;;;13.50;8.85;;;8.10;99.90;;;;;;4945839;28;20190;-79
2022/09/29 03:12:40;;;;;;;12.18;9.25;;;8.10;99.90;;;;;;4960877;28;20035;-82
2022/09/29 03:15:12;;;;;;;13.32;9.15;;;8.10;99.90;;;;;;4964223;28;20023;-81
2022/09/29 03:17:38;;;;;;;12.73;8.57;;;8.20;99.90;;;;;;4966077;28;20029;-80
2022/09/29 03:20:04;;;;;;;20.17;8.90;;;8.20;99.90;;;;;;4962998;28;20034;-80
2022/09/29 03:22:30;;;;;;;10.65;8.30;;;8.20;99.90;;;;;;4953759;28;20023;-77
2022/09/29 03:24:56;;;;;;;13.43;8.70;;;8.10;99.90;;;;;;4964014;28;20887;-80
2022/09/29 03:27:22;;;;;;;11.90;8.57;;;8.20;99.90;;;;;;4961028;28;20053;-81
2022/09/29 03:29:49;;;;;;;17.73;8.95;;;8.10;99.90;;;;;;4961683;28;20113;-80
2022/09/29 03:32:15;;;;;;;13.65;8.23;;;8.10;99.90;;;;;;4964080;28;20023;-80
2022/09/29 03:34:41;;;;;;;11.82;8.55;;;8.10;99.90;;;;;;4952928;28;20038;-78
2022/09/29 03:37:06;;;;;;;12.07;8.93;;;8.10;99.90;;;;;;4950834;28;20352;-81
2022/09/29 03:39:35;;;;;;;10.75;8.75;;;8.10;99.90;;;;;;4961989;28;20460;-78
2022/09/29 03:42:01;;;;;;;11.98;8.52;;;8.10;99.90;;;;;;4950154;28;20038;-79
2022/09/29 03:44:26;;;;;;;11.85;8.60;;;8.10;99.90;;;;;;4958107;28;20027;-81
2022/09/29 03:46:52;;;;;;;17.85;8.73;;;8.00;99.90;;;;;;4965907;28;20066;-79
2022/09/29 03:49:17;;;;;;;11.20;8.38;;;8.00;99.90;;;;;;4963618;28;20019;-81
2022/09/29 03:51:43;;;;;;;11.52;8.45;;;8.10;99.90;;;;;;4954486;28;20082;-81
2022/09/29 03:54:09;;;;;;;12.90;9.65;;;8.00;99.90;;;;;;4962111;28;20031;-80
2022/09/29 03:56:38;;;;;;;11.57;9.15;;;8.00;99.90;;;;;;4964678;28;20031;-81
2022/09/29 03:59:09;;;;;;;15.00;9.43;;;8.00;99.90;;;;;;4952348;28;20440;-79
2022/09/29 04:01:36;;;;;;;15.23;9.50;;;8.00;99.90;;;;;;4962391;28;20035;-81
2022/09/29 04:04:03;;;;;;;13.93;9.82;;;8.00;99.90;;;;;;4950178;28;20591;-79
2022/09/29 04:06:28;;;;;;;10.63;8.82;;;8.00;99.90;;;;;;4964531;28;20036;-80
2022/09/29 04:08:54;;;;;;;14.80;9.85;;;8.00;99.90;;;;;;4964424;28;20035;-78
2022/09/29 04:11:19;;;;;;;15.60;8.13;;;8.00;99.90;;;;;;4954740;28;20023;-81
2022/09/29 04:13:45;;;;;;;9.98;8.13;;;8.00;99.90;;;;;;4962983;28;20476;-81
2022/09/29 04:16:13;;;;;;;11.27;8.27;;;8.00;99.90;;;;;;4946271;28;20468;-81
2022/09/29 04:18:38;;;;;;;13.18;8.48;;;8.00;99.90;;;;;;4956442;28;20043;-80
2022/09/29 04:21:08;;;;;;;12.63;8.63;;;8.00;99.90;;;;;;4949701;28;20031;-81
2022/09/29 04:23:35;;;;;;;10.40;7.93;;;8.00;99.90;;;;;;4965827;28;20086;-80
2022/09/29 04:26:01;;;;;;;10.00;7.88;;;8.00;99.90;;;;;;4964677;28;20081;-81
2022/09/29 04:28:30;;;;;;;11.43;7.68;;;7.90;99.90;;;;;;4948222;28;20026;-79
2022/09/29 04:30:55;;;;;;;12.85;8.32;;;7.90;99.90;;;;;;4947544;28;20531;-81
2022/09/29 04:33:21;;;;;;;17.65;8.05;;;7.80;99.90;;;;;;4966371;28;20115;-78
2022/09/29 04:35:46;;;;;;;12.50;8.82;;;7.70;99.90;;;;;;4953272;28;20022;-81
2022/09/29 04:38:12;;;;;;;11.13;8.75;;;7.70;99.90;;;;;;4963424;28;20457;-81
2022/09/29 04:40:38;;;;;;;13.95;8.50;;;7.80;99.90;;;;;;4954309;28;20050;-79
2022/09/29 04:43:04;;;;;;;16.15;9.63;;;7.80;99.90;;;;;;4944551;28;20089;-78
2022/09/29 04:45:30;;;;;;;17.85;11.02;;;7.80;99.90;;;;;;4949558;28;20035;-81
2022/09/29 04:47:56;;;;;;;18.58;10.05;;;7.80;99.90;;;;;;4962902;28;20110;-79
2022/09/29 04:50:23;;;;;;;24.25;10.68;;;7.80;99.90;;;;;;4961187;28;20101;-78
2022/09/29 04:52:48;;;;;;;19.55;9.98;;;7.90;99.90;;;;;;4962730;28;20465;-80
2022/09/29 04:55:14;;;;;;;20.00;9.20;;;7.90;99.90;;;;;;4951401;28;20034;-79
2022/09/29 04:57:42;;;;;;;13.23;8.70;;;7.90;99.90;;;;;;4951506;28;20048;-80
2022/09/29 05:00:08;;;;;;;16.63;8.85;;;7.80;99.90;;;;;;4962353;28;20026;-80
2022/09/29 05:02:37;;;;;;;11.75;8.63;;;7.80;99.90;;;;;;4948786;28;20114;-81
2022/09/29 05:05:03;;;;;;;13.25;8.68;;;7.80;99.90;;;;;;4959666;28;20031;-79
2022/09/29 05:07:31;;;;;;;12.25;8.63;;;7.80;99.90;;;;;;4969956;28;20106;-79
2022/09/29 05:09:59;;;;;;;15.40;9.65;;;7.90;99.90;;;;;;4963207;28;20525;-78
2022/09/29 05:12:24;;;;;;;13.55;8.80;;;7.90;99.90;;;;;;4964237;28;20053;-75
2022/09/29 05:14:50;;;;;;;11.98;8.95;;;7.90;99.90;;;;;;4961207;28;20401;-77
2022/09/29 05:17:18;;;;;;;18.83;9.55;;;7.90;99.90;;;;;;4960540;28;20027;-81
2022/09/29 05:19:43;;;;;;;15.65;8.23;;;7.90;99.90;;;;;;4962454;28;20057;-80
2022/09/29 05:22:09;;;;;;;11.52;8.43;;;7.90;99.90;;;;;;4961837;28;20020;-80
2022/09/29 05:24:35;;;;;;;15.95;8.73;;;7.90;99.90;;;;;;4944780;28;20027;-81
2022/09/29 05:27:00;;;;;;;14.32;8.02;;;7.90;99.90;;;;;;4959603;28;20031;-81
2022/09/29 05:29:26;;;;;;;12.43;8.65;;;7.80;99.90;;;;;;4962177;28;20031;-79
2022/09/29 05:31:52;;;;;;;21.25;8.65;;;7.80;99.90;;;;;;4962192;28;20054;-79
2022/09/29 05:34:17;;;;;;;16.90;8.77;;;7.80;99.90;;;;;;4958750;28;20146;-80
2022/09/29 05:36:45;;;;;;;12.38;8.63;;;7.80;99.90;;;;;;4963447;28;20368;-80
2022/09/29 05:39:11;;;;;;;15.93;9.27;;;7.80;99.90;;;;;;4963871;28;20034;-80
2022/09/29 05:41:37;;;;;;;12.75;8.88;;;7.90;99.90;;;;;;4952246;28;20737;-81
2022/09/29 05:44:03;;;;;;;19.50;9.70;;;7.90;99.90;;;;;;4960795;28;20096;-78
2022/09/29 05:46:29;;;;;;;12.65;9.18;;;7.90;99.90;;;;;;4960187;28;20038;-78
2022/09/29 05:48:57;;;;;;;19.58;9.18;;;8.00;99.90;;;;;;4960080;28;20041;-78
2022/09/29 05:51:23;;;;;;;20.42;9.38;;;8.00;99.90;;;;;;4945609;28;20027;-78
2022/09/29 05:53:50;;;;;;;15.23;9.05;;;8.00;99.90;;;;;;4961503;28;20039;-80
2022/09/29 05:56:21;;;;;;;15.27;9.15;;;8.00;99.90;;;;;;4965701;28;20042;-80
2022/09/29 05:58:47;;;;;;;13.23;9.50;;;8.00;99.90;;;;;;4958600;28;20543;-81
2022/09/29 06:01:15;;;;;;;17.52;9.70;;;8.10;99.90;;;;;;4962384;28;20046;-79
2022/09/29 06:03:44;;;;;;;13.40;8.80;;;8.10;99.90;;;;;;4961738;28;20023;-79
2022/09/29 06:06:19;;;;;;;13.82;8.48;;;8.10;99.90;;;;;;4954464;28;20085;-80
2022/09/29 06:08:48;;;;;;;17.30;9.35;;;8.10;99.90;;;;;;4948880;28;20130;-80
2022/09/29 06:11:15;;;;;;;17.80;9.23;;;8.10;99.90;;;;;;4946347;28;20058;-81
2022/09/29 06:13:43;;;;;;;18.60;9.20;;;8.10;99.90;;;;;;4961851;28;20027;-80
2022/09/29 06:16:09;;;;;;;13.43;8.68;;;8.20;99.90;;;;;;4962338;28;20551;-80
2022/09/29 06:18:36;;;;;;;14.32;8.57;;;8.20;99.90;;;;;;4948578;28;20050;-80
2022/09/29 06:21:01;;;;;;;15.98;9.10;;;8.20;99.90;;;;;;4958160;28;20030;-78
2022/09/29 06:23:27;;;;;;;13.38;9.13;;;8.30;99.90;;;;;;4960037;28;20018;-80
2022/09/29 06:26:00;;;;;;;14.40;9.07;;;8.30;99.90;;;;;;4940927;28;20038;-78
2022/09/29 06:28:27;;;;;;;19.17;7.97;;;8.30;99.90;;;;;;4965338;28;20015;-79
2022/09/29 06:31:07;;;;;;;13.95;8.82;;;8.30;99.90;;;;;;4948348;28;20122;-79
2022/09/29 06:33:35;;;;;;;15.25;9.43;;;8.30;99.90;;;;;;4960956;28;20054;-79
2022/09/29 06:38:51;;;;;;;16.25;8.55;;;8.50;99.90;;;;;;4960579;28;20033;-80
2022/09/29 06:41:18;;;;;;;11.35;8.10;;;8.50;99.90;;;;;;4952523;28;20030;-79
2022/09/29 06:43:43;;;;;;;13.55;8.55;;;8.60;99.90;;;;;;4953894;28;20027;-76
2022/09/29 06:46:09;;;;;;;11.88;8.27;;;8.70;99.90;;;;;;4951866;28;20496;-75
2022/09/29 06:48:36;;;;;;;13.30;8.93;;;8.80;99.90;;;;;;4946947;28;20039;-77
2022/09/29 06:51:05;;;;;;;14.82;9.27;;;8.90;99.90;;;;;;4963064;28;20016;-76
2022/09/29 06:53:33;;;;;;;16.85;10.15;;;9.00;99.90;;;;;;4961443;28;20035;-75
2022/09/29 06:55:59;;;;;;;15.05;9.63;;;9.10;99.90;;;;;;4961737;28;20058;-77
2022/09/29 06:58:28;;;;;;;23.80;11.10;;;9.10;99.90;;;;;;4952385;28;20044;-76
2022/09/29 07:00:54;;;;;;;16.98;9.30;;;9.20;99.90;;;;;;4963124;28;20096;-74
2022/09/29 07:03:22;;;;;;;13.77;9.32;;;9.20;99.90;;;;;;4957788;28;20035;-75
2022/09/29 07:05:48;;;;;;;12.70;8.82;;;9.30;99.90;;;;;;4957679;28;20027;-79
2022/09/29 07:08:16;;;;;;;20.15;10.55;;;9.40;99.90;;;;;;4966237;28;21112;-80
2022/09/29 07:10:41;;;;;;;11.20;9.00;;;9.40;99.90;;;;;;4962485;28;20156;-75
2022/09/29 07:13:08;;;;;;;12.70;9.07;;;9.50;99.90;;;;;;4968738;28;20517;-79
2022/09/29 07:15:36;;;;;;;18.58;9.55;;;9.50;99.90;;;;;;4953456;28;20031;-79
2022/09/29 07:18:05;;;;;;;16.27;10.15;;;9.70;99.90;;;;;;4955683;28;20075;-80
2022/09/29 07:20:32;;;;;;;14.43;9.77;;;9.70;99.90;;;;;;4968893;28;20043;-80
2022/09/29 07:22:58;;;;;;;19.63;11.00;;;9.80;99.90;;;;;;4966935;28;20115;-79
2022/09/29 07:25:26;;;;;;;15.05;10.05;;;9.90;99.90;;;;;;4966935;28;20508;-80
2022/09/29 07:27:52;;;;;;;17.65;10.75;;;10.00;99.90;;;;;;4969089;28;20066;-80
2022/09/29 07:30:20;;;;;;;15.25;10.52;;;10.00;99.90;;;;;;4965527;28;20066;-73
2022/09/29 07:32:46;;;;;;;47.63;18.83;;;10.10;99.90;;;;;;4963452;28;20046;-74
2022/09/29 07:35:11;;;;;;;18.48;10.13;;;10.10;99.90;;;;;;4948769;28;20453;-79
2022/09/29 07:37:37;;;;;;;18.88;10.95;;;10.20;99.90;;;;;;4948908;28;20110;-79
2022/09/29 07:40:03;;;;;;;17.50;11.30;;;10.30;99.90;;;;;;4962037;28;20054;-77
2022/09/29 07:42:31;;;;;;;18.02;11.55;;;10.40;99.90;;;;;;4968863;28;20417;-80
2022/09/29 07:44:56;;;;;;;17.98;10.27;;;10.40;99.90;;;;;;4965199;28;20130;-79
2022/09/29 07:47:22;;;;;;;17.58;10.88;;;10.50;99.90;;;;;;4963773;28;20179;-81
2022/09/29 07:49:50;;;;;;;20.23;11.35;;;10.70;99.90;;;;;;4949944;28;20027;-81
2022/09/29 07:52:18;;;;;;;19.60;11.40;;;10.70;99.90;;;;;;4967698;28;20027;-78
2022/09/29 07:54:44;;;;;;;16.20;11.20;;;10.80;99.90;;;;;;4963953;28;20515;-79
2022/09/29 07:57:10;;;;;;;14.90;10.98;;;10.90;99.90;;;;;;4950226;28;20023;-78
2022/09/29 07:59:35;;;;;;;20.23;12.05;;;11.10;99.90;;;;;;4951104;28;20038;-75
2022/09/29 08:02:01;;;;;;;18.15;11.15;;;11.20;99.90;;;;;;4953360;28;20045;-76
2022/09/29 08:04:30;;;;;;;20.52;11.45;;;11.30;99.90;;;;;;4965422;28;20061;-77
2022/09/29 08:06:55;;;;;;;17.23;11.65;;;11.40;99.90;;;;;;4965273;28;20093;-77
2022/09/29 08:09:21;;;;;;;16.58;10.43;;;11.60;99.90;;;;;;4950221;28;20039;-80
2022/09/29 08:11:49;;;;;;;15.95;10.95;;;11.80;99.90;;;;;;4962424;28;20369;-78
2022/09/29 08:14:16;;;;;;;18.45;10.80;;;11.70;99.90;;;;;;4954120;28;20031;-78
2022/09/29 08:16:44;;;;;;;22.10;11.07;;;11.70;99.90;;;;;;4964842;28;20513;-78
2022/09/29 08:19:10;;;;;;;21.58;11.25;;;11.90;99.90;;;;;;4964857;28;20117;-80
2022/09/29 08:21:38;;;;;;;22.65;10.43;;;12.20;99.90;;;;;;4954568;28;20153;-80
2022/09/29 08:24:05;;;;;;;17.35;9.95;;;12.40;99.90;;;;;;4961531;28;20031;-79
2022/09/29 08:26:34;;;;;;;20.00;10.82;;;12.30;99.90;;;;;;4950366;28;20045;-78
2022/09/29 08:29:01;;;;;;;14.45;10.05;;;12.60;99.90;;;;;;4966456;28;20027;-79
2022/09/29 08:31:27;;;;;;;17.77;10.75;;;12.80;99.90;;;;;;4946290;28;20222;-78
2022/09/29 08:33:58;;;;;;;15.00;10.45;;;12.90;99.90;;;;;;4955023;28;20084;-77
2022/09/29 08:36:26;;;;;;;17.52;11.00;;;12.90;99.90;;;;;;4957099;28;20113;-78
2022/09/29 08:38:55;;;;;;;18.65;10.60;;;13.10;99.90;;;;;;4962338;28;20441;-79
2022/09/29 08:41:27;;;;;;;17.23;10.02;;;13.40;99.90;;;;;;4947566;28;20030;-77
2022/09/29 08:44:20;;;;;;;15.13;9.35;;;13.50;99.90;;;;;;4963398;28;20030;-77
2022/09/29 08:46:56;;;;;;;16.58;10.10;;;13.80;99.90;;;;;;4946213;28;20070;-78
2022/09/29 08:49:37;;;;;;;114.93;41.78;;;14.30;99.90;;;;;;4968218;28;20023;-75
2022/09/29 08:52:10;;;;;;;14.35;9.43;;;14.60;99.90;;;;;;4971483;28;20034;-78
2022/09/29 08:54:42;;;;;;;13.30;8.65;;;14.90;99.90;;;;;;4970486;28;20042;-77
2022/09/29 08:57:18;;;;;;;12.48;8.90;;;15.30;99.90;;;;;;4967279;28;20022;-79
2022/09/29 08:59:57;;;;;;;14.05;8.80;;;15.60;99.90;;;;;;4955449;28;20034;-79
2022/09/29 09:02:35;;;;;;;13.85;8.90;;;16.20;99.90;;;;;;4960581;28;20098;-74
2022/09/29 09:05:09;;;;;;;21.63;9.15;;;16.90;99.90;;;;;;4960316;28;20058;-77
2022/09/29 09:07:48;;;;;;;16.25;9.57;;;17.60;99.90;;;;;;4946804;28;20037;-77
2022/09/29 09:10:45;;;;;;;11.73;8.68;;;18.00;99.90;;;;;;4946182;28;20345;-77
2022/09/29 09:13:30;;;;;;;10.32;8.00;;;19.00;99.90;;;;;;4960130;28;20031;-77
2022/09/29 09:16:14;;;;;;;12.55;8.15;;;20.00;99.90;;;;;;4943467;28;20155;-77
2022/09/29 09:18:46;;;;;;;12.30;8.23;;;20.80;98.80;;;;;;4959559;28;20090;-77
2022/09/29 09:21:35;;;;;;;15.30;8.35;;;20.60;99.00;;;;;;4963650;28;20026;-76
2022/09/29 09:24:47;;;;;;;13.23;8.23;;;21.00;97.00;;;;;;4959918;28;20294;-76
2022/09/29 09:27:22;;;;;;;11.75;7.63;;;21.60;95.50;;;;;;4939777;28;20117;-78
2022/09/29 09:30:07;;;;;;;10.80;7.90;;;21.60;95.90;;;;;;4958504;28;20025;-78
2022/09/29 09:32:42;;;;;;;10.65;7.32;;;21.90;93.50;;;;;;4962972;28;20027;-77
2022/09/29 09:35:07;;;;;;;13.75;8.10;;;21.40;93.60;;;;;;4949577;28;20421;-77
2022/09/29 09:37:38;;;;;;;10.32;7.93;;;21.20;94.70;;;;;;4944124;28;20114;-76
2022/09/29 09:40:10;;;;;;;11.25;7.40;;;21.00;92.50;;;;;;4959541;28;20027;-76
2022/09/29 09:42:41;;;;;;;9.88;8.02;;;20.70;92.30;;;;;;4961498;28;20110;-76
2022/09/29 09:45:07;;;;;;;11.23;7.47;;;20.20;93.00;;;;;;4951973;28;20173;-76
2022/09/29 09:47:51;;;;;;;38.95;20.63;;;20.10;94.60;;;;;;4960576;28;20102;-74
2022/09/29 09:50:20;;;;;;;10.48;7.13;;;20.30;93.90;;;;;;4957936;28;20449;-75
2022/09/29 09:52:54;;;;;;;9.63;6.65;;;20.20;93.70;;;;;;4961437;28;20027;-76
2022/09/29 09:55:27;;;;;;;12.73;6.93;;;20.10;93.40;;;;;;4958518;28;20027;-77
2022/09/29 09:58:13;;;;;;;13.40;7.43;;;19.70;93.10;;;;;;4951295;28;20030;-75
2022/09/29 10:01:01;;;;;;;12.27;7.65;;;19.40;95.10;;;;;;4939101;28;20389;-76
2022/09/29 10:03:28;;;;;;;12.75;7.50;;;19.60;97.20;;;;;;4964572;28;20022;-76
2022/09/29 10:05:54;;;;;;;10.75;6.45;;;19.50;95.90;;;;;;4945795;28;20101;-76
2022/09/29 10:08:26;;;;;;;10.32;6.65;;;19.40;95.40;;;;;;4962030;28;20035;-76
2022/09/29 10:10:52;;;;;;;8.68;6.20;;;19.30;94.90;;;;;;4950995;28;20428;-75
2022/09/29 10:13:18;;;;;;;11.48;5.55;;;18.80;94.50;;;;;;4958712;28;20190;-72
2022/09/29 10:15:56;;;;;;;10.43;6.13;;;18.80;94.90;;;;;;4965691;28;20122;-76
2022/09/29 10:18:26;;;;;;;16.50;8.35;;;18.50;94.90;;;;;;4960945;28;20023;-75
2022/09/29 10:20:52;;;;;;;11.18;7.22;;;18.30;96.00;;;;;;4966095;28;20023;-74
2022/09/29 10:23:29;;;;;;;11.32;7.82;;;18.20;97.70;;;;;;4962997;28;20483;-72
2022/09/29 10:26:17;;;;;;;10.15;5.78;;;18.60;95.40;;;;;;4964029;28;20039;-75
2022/09/29 10:28:53;;;;;;;8.10;6.32;;;19.10;95.70;;;;;;4961275;28;20133;-76
2022/09/29 10:31:26;;;;;;;10.02;6.07;;;19.60;92.90;;;;;;4943445;28;20027;-76
2022/09/29 10:33:56;;;;;;;14.05;6.95;;;20.00;92.20;;;;;;4963402;28;20026;-75
2022/09/29 10:36:26;;;;;;;7.47;5.65;;;19.70;92.00;;;;;;4966264;28;20019;-75
2022/09/29 10:38:52;;;;;;;8.05;5.65;;;19.10;92.20;;;;;;4965721;28;20030;-76
2022/09/29 10:41:18;;;;;;;6.03;5.35;;;19.50;92.50;;;;;;4963762;28;20123;-76
2022/09/29 10:43:46;;;;;;;7.18;4.57;;;20.00;92.60;;;;;;4966126;28;20094;-78
2022/09/29 10:46:49;;;;;;;19.17;9.98;;;20.10;90.60;;;;;;4968024;28;20023;-72
2022/09/29 10:49:16;;;;;;;12.10;4.53;;;20.80;90.90;;;;;;4932293;28;20047;-73
2022/09/29 10:51:59;;;;;;;7.35;3.85;;;20.70;89.50;;;;;;4966776;28;20270;-77
2022/09/29 10:54:30;;;;;;;6.80;4.93;;;21.10;89.30;;;;;;4968747;28;20031;-76
2022/09/29 10:56:59;;;;;;;9.90;5.47;;;21.30;88.30;;;;;;4965825;28;20034;-75
2022/09/29 10:59:26;;;;;;;6.88;5.47;;;21.50;86.40;;;;;;4961262;28;20027;-75
2022/09/29 11:01:57;;;;;;;10.85;6.03;;;21.40;85.60;;;;;;4965653;28;20027;-76
2022/09/29 11:04:31;;;;;;;9.27;5.53;;;21.30;85.30;;;;;;4964574;28;20023;-76
2022/09/29 11:07:13;;;;;;;6.85;4.38;;;21.40;84.80;;;;;;4962116;28;20042;-76
2022/09/29 11:09:45;;;;;;;8.75;4.45;;;21.20;84.10;;;;;;4949040;28;20030;-75
2022/09/29 11:12:25;;;;;;;5.77;4.93;;;21.50;83.40;;;;;;4949484;28;20027;-75
2022/09/29 11:14:51;;;;;;;11.63;5.80;;;21.10;81.40;;;;;;4958731;28;20023;-76
2022/09/29 11:17:27;;;;;;;7.68;5.97;;;21.10;83.80;;;;;;4944931;28;20116;-75
2022/09/29 11:20:01;;;;;;;87.90;38.88;;;21.10;83.40;;;;;;4964877;28;20027;-73
2022/09/29 11:22:48;;;;;;;8.43;5.40;;;21.40;86.40;;;;;;4949933;28;20338;-76
2022/09/29 11:25:35;;;;;;;10.00;5.55;;;21.70;83.70;;;;;;4948761;28;20019;-76
2022/09/29 11:28:27;;;;;;;9.35;6.13;;;21.70;82.60;;;;;;4966448;28;20044;-77
2022/09/29 11:31:12;;;;;;;12.02;4.78;;;21.60;82.40;;;;;;4945460;28;20031;-76
2022/09/29 11:33:43;;;;;;;7.70;5.05;;;21.70;82.70;;;;;;4947938;28;20035;-76
2022/09/29 11:36:31;;;;;;;5.97;5.32;;;21.70;83.90;;;;;;4947266;28;20034;-76
2022/09/29 11:39:14;;;;;;;7.97;4.70;;;21.20;82.10;;;;;;4962994;28;20058;-76
2022/09/29 11:41:45;;;;;;;7.38;4.85;;;20.40;84.70;;;;;;4963094;28;20027;-75
2022/09/29 11:44:14;;;;;;;9.05;5.03;;;19.70;86.40;;;;;;4962677;28;20046;-76
2022/09/29 11:47:30;;;;;;;9.73;5.88;;;19.30;88.50;;;;;;4945459;28;20572;-74
2022/09/29 11:50:15;;;;;;;5.38;4.85;;;18.90;88.20;;;;;;4874891;29;20033;-75
2022/09/29 11:53:10;;;;;;;9.95;5.88;;;18.60;89.60;;;;;;4944636;28;20154;-75
2022/09/29 11:55:42;;;;;;;10.27;5.43;;;18.30;90.40;;;;;;4944151;28;20515;-75
2022/09/29 11:58:40;;;;;;;6.80;5.25;;;18.10;91.00;;;;;;4946789;28;20345;-75
2022/09/29 12:01:47;;;;;;;9.40;5.00;;;18.00;90.30;;;;;;4945079;28;20027;-76
2022/09/29 12:04:22;;;;;;;6.95;5.10;;;18.00;90.70;;;;;;4863763;29;20169;-76
2022/09/29 12:06:50;;;;;;;7.55;5.32;;;18.10;90.90;;;;;;4954476;28;20039;-76
2022/09/29 12:09:41;;;;;;;5.63;4.35;;;18.30;90.70;;;;;;4942141;28;20093;-75
2022/09/29 12:12:23;;;;;;;7.88;4.93;;;18.70;90.50;;;;;;4962319;28;20037;-76
2022/09/29 12:15:02;;;;;;;9.73;4.53;;;19.30;88.50;;;;;;4947823;28;20039;-76
2022/09/29 12:17:33;;;;;;;131.35;60.25;;;19.80;86.40;;;;;;4957603;28;20066;-75
2022/09/29 12:20:33;;;;;;;5.97;4.80;;;20.20;84.60;;;;;;4959869;28;20026;-75
2022/09/29 12:23:08;;;;;;;6.00;4.47;;;20.60;84.80;;;;;;4943671;28;20599;-77
2022/09/29 12:25:38;;;;;;;5.28;4.78;;;21.10;80.60;;;;;;4962379;28;20035;-75
2022/09/29 12:28:15;;;;;;;7.00;4.40;;;21.40;78.90;;;;;;4965539;28;20463;-76
2022/09/29 12:30:50;;;;;;;5.05;4.55;;;21.70;79.80;;;;;;4948824;28;20027;-75
2022/09/29 12:33:25;;;;;;;5.72;4.25;;;22.10;76.70;;;;;;4964741;28;20699;-76
2022/09/29 12:35:54;;;;;;;3.85;3.40;;;22.20;74.90;;;;;;4945775;28;20023;-75
2022/09/29 12:38:41;;;;;;;10.23;3.92;;;21.90;72.80;;;;;;4962710;28;20060;-75
2022/09/29 12:41:24;;;;;;;9.18;4.80;;;22.00;75.40;;;;;;4959289;28;20023;-75
2022/09/29 12:43:57;;;;;;;4.30;3.45;;;22.10;75.50;;;;;;4961811;28;20049;-75
2022/09/29 12:46:48;;;;;;;3.80;3.50;;;22.60;74.00;;;;;;4950065;28;20487;-75
2022/09/29 12:49:57;;;;;;;25.77;11.20;;;23.20;70.80;;;;;;4957658;28;20031;-73
2022/09/29 12:52:33;;;;;;;3.55;2.60;;;23.40;65.50;;;;;;4961875;28;20379;-75
2022/09/29 12:55:08;;;;;;;3.78;3.10;;;23.50;67.70;;;;;;4958755;28;20038;-74
2022/09/29 12:57:40;;;;;;;5.25;3.58;;;22.90;69.10;;;;;;4940046;28;20027;-75
2022/09/29 13:00:12;;;;;;;4.05;3.65;;;22.80;68.30;;;;;;4959585;28;20019;-76
2022/09/29 13:03:00;;;;;;;4.03;3.63;;;22.60;67.70;;;;;;4962505;28;20027;-75
2022/09/29 13:05:47;;;;;;;6.13;3.47;;;22.50;70.10;;;;;;4944665;28;20038;-75
2022/09/29 13:08:46;;;;;;;4.15;3.70;;;22.60;69.40;;;;;;4943331;28;20031;-74
2022/09/29 13:11:24;;;;;;;76.35;35.88;;;23.10;69.20;;;;;;4946516;28;20038;-74